createdAt,value
2022-08-01T00:03:40.903Z,8.10
2022-08-01T00:08:44.736Z,7.85
2022-08-01T00:13:57.400Z,7.40
2022-08-01T00:19:00.835Z,7.80
2022-08-01T00:24:04.455Z,7.93
2022-08-01T00:29:10.161Z,8.68
2022-08-01T00:34:31.965Z,8.00
2022-08-01T00:39:35.588Z,8.50
2022-08-01T00:44:39.856Z,7.55
2022-08-01T00:49:43.291Z,8.30
2022-08-01T00:54:47.475Z,8.93
2022-08-01T00:59:51.393Z,7.88
2022-08-01T01:04:55.921Z,8.57
2022-08-01T01:10:05.076Z,9.40
2022-08-01T01:15:27.849Z,8.05
2022-08-01T01:20:41.594Z,8.90
2022-08-01T01:26:15.757Z,8.07
2022-08-01T01:31:22.580Z,8.75
2022-08-01T01:36:28.451Z,8.63
2022-08-01T01:41:33.079Z,9.10
2022-08-01T01:46:37.688Z,8.85
2022-08-01T01:51:54.198Z,8.82
2022-08-01T01:57:09.504Z,8.98
2022-08-01T02:02:15.766Z,9.45
2022-08-01T02:07:23.553Z,8.60
2022-08-01T02:12:28.240Z,8.05
2022-08-01T02:17:32.592Z,8.20
2022-08-01T02:22:43.387Z,9.38
2022-08-01T02:27:59.035Z,8.73
2022-08-01T02:33:25.961Z,8.75
2022-08-01T02:38:33.652Z,9.07
2022-08-01T02:43:47.083Z,9.02
2022-08-01T02:48:59.917Z,8.77
2022-08-01T02:54:06.529Z,8.93
2022-08-01T02:59:14.526Z,9.70
2022-08-01T03:04:20.296Z,8.70
2022-08-01T03:09:26.342Z,9.27
2022-08-01T03:14:32.386Z,9.70
2022-08-01T03:19:37.444Z,9.15
2022-08-01T03:24:43.929Z,9.23
2022-08-01T03:29:49.554Z,10.07
2022-08-01T03:34:53.263Z,9.55
2022-08-01T03:40:03.435Z,9.57
2022-08-01T03:45:13.282Z,10.30
2022-08-01T03:50:20.284Z,10.18
2022-08-01T03:55:24.638Z,9.95
2022-08-01T04:00:29.276Z,10.55
2022-08-01T04:05:32.723Z,9.50
2022-08-01T04:10:37.720Z,10.35
2022-08-01T04:15:41.179Z,10.05
2022-08-01T04:20:44.647Z,9.75
2022-08-01T04:25:51.159Z,9.82
2022-08-01T04:31:01.667Z,9.95
2022-08-01T04:36:08.198Z,10.00
2022-08-01T04:41:14.019Z,8.52
2022-08-01T04:46:17.563Z,9.57
2022-08-01T04:51:32.630Z,8.65
2022-08-01T04:56:36.121Z,9.48
2022-08-01T05:01:40.018Z,9.95
2022-08-01T05:06:44.704Z,8.60
2022-08-01T05:11:48.321Z,9.20
2022-08-01T05:16:51.825Z,9.10
2022-08-01T05:21:55.168Z,8.50
2022-08-01T05:27:04.198Z,8.40
2022-08-01T05:32:08.087Z,8.65
2022-08-01T05:37:11.688Z,8.52
2022-08-01T05:42:15.000Z,8.50
2022-08-01T05:47:18.733Z,8.07
2022-08-01T05:52:22.088Z,7.78
2022-08-01T05:57:26.076Z,7.85
2022-08-01T06:02:29.777Z,8.00
2022-08-01T06:07:33.746Z,8.20
2022-08-01T06:12:42.086Z,8.65
2022-08-01T06:17:45.939Z,7.90
2022-08-01T06:22:52.568Z,8.32
2022-08-01T06:27:56.701Z,7.43
2022-08-01T06:33:00.478Z,5.90
2022-08-01T06:38:04.499Z,6.57
2022-08-01T06:43:08.722Z,6.97
2022-08-01T06:48:12.496Z,6.53
2022-08-01T06:53:15.966Z,5.65
2022-08-01T06:58:19.296Z,5.60
2022-08-01T07:03:24.533Z,5.50
2022-08-01T07:08:28.720Z,5.25
2022-08-01T07:13:43.993Z,6.75
2022-08-01T07:18:49.441Z,5.80
2022-08-01T07:23:52.977Z,5.47
2022-08-01T07:28:59.348Z,5.63
2022-08-01T07:34:03.534Z,5.10
2022-08-01T07:39:07.087Z,5.45
2022-08-01T07:44:10.600Z,5.75
2022-08-01T07:49:13.965Z,5.78
2022-08-01T07:54:17.572Z,5.40
2022-08-01T07:59:23.255Z,5.28
2022-08-01T08:04:29.772Z,4.95
2022-08-01T08:09:37.447Z,7.15
2022-08-01T08:14:41.770Z,6.13
2022-08-01T08:19:45.326Z,5.18
2022-08-01T08:24:48.878Z,4.65
2022-08-01T08:29:52.341Z,5.45
2022-08-01T08:34:55.871Z,5.90
2022-08-01T08:39:59.652Z,6.00
2022-08-01T08:45:03.903Z,5.78
2022-08-01T08:50:08.521Z,5.22
2022-08-01T08:55:13.670Z,5.85
2022-08-01T09:00:17.658Z,6.28
2022-08-01T09:05:25.042Z,6.18
2022-08-01T09:10:48.357Z,5.93
2022-08-01T09:15:58.509Z,7.40
2022-08-01T09:21:14.914Z,6.25
2022-08-01T09:26:31.442Z,6.28
2022-08-01T09:31:47.502Z,7.13
2022-08-01T09:36:57.780Z,7.00
2022-08-01T09:42:04.032Z,6.78
2022-08-01T09:47:08.198Z,6.88
2022-08-01T09:52:25.898Z,6.47
2022-08-01T09:57:32.638Z,7.47
2022-08-01T10:02:38.482Z,7.32
2022-08-01T10:08:02.601Z,7.30
2022-08-01T10:13:13.120Z,7.30
2022-08-01T10:18:25.868Z,7.40
2022-08-01T10:23:40.469Z,6.60
2022-08-01T10:28:49.191Z,6.45
2022-08-01T10:33:53.770Z,8.40
2022-08-01T10:38:59.583Z,7.93
2022-08-01T10:44:04.431Z,9.32
2022-08-01T10:49:15.191Z,10.52
2022-08-01T10:54:18.660Z,9.37
2022-08-01T10:59:50.971Z,10.45
2022-08-01T11:05:02.134Z,9.88
2022-08-01T11:10:51.187Z,10.32
2022-08-01T11:16:28.300Z,10.15
2022-08-01T11:21:59.150Z,8.73
2022-08-01T11:27:23.541Z,10.52
2022-08-01T11:32:28.864Z,9.10
2022-08-01T11:37:32.248Z,8.23
2022-08-01T11:42:36.719Z,8.68
2022-08-01T11:47:51.352Z,8.23
2022-08-01T11:53:06.404Z,7.85
2022-08-01T11:58:22.279Z,8.70
2022-08-01T12:03:34.519Z,8.07
2022-08-01T12:08:43.100Z,8.45
2022-08-01T12:13:46.818Z,7.85
2022-08-01T12:18:50.361Z,8.55
2022-08-01T12:24:04.569Z,8.88
2022-08-01T12:29:08.565Z,8.55
2022-08-01T12:34:28.374Z,9.25
2022-08-01T12:39:34.002Z,9.73
2022-08-01T12:44:39.186Z,9.32
2022-08-01T12:49:44.661Z,9.88
2022-08-01T12:55:09.616Z,10.23
2022-08-01T13:00:21.035Z,8.20
2022-08-01T13:05:26.298Z,10.20
2022-08-01T13:10:31.738Z,12.63
2022-08-01T13:15:41.867Z,12.90
2022-08-01T13:20:45.641Z,11.18
2022-08-01T13:25:56.902Z,12.85
2022-08-01T13:31:01.278Z,12.80
2022-08-01T13:36:05.389Z,13.27
2022-08-01T13:41:09.460Z,13.27
2022-08-01T13:46:13.139Z,12.05
2022-08-01T13:51:22.713Z,14.60
2022-08-01T13:56:27.253Z,13.23
2022-08-01T14:01:34.207Z,13.95
2022-08-01T14:06:38.175Z,14.23
2022-08-01T14:11:45.844Z,14.82
2022-08-01T14:16:49.550Z,16.08
2022-08-01T14:21:53.861Z,15.73
2022-08-01T14:26:58.323Z,14.88
2022-08-01T14:32:02.348Z,15.30
2022-08-01T14:37:06.128Z,14.70
2022-08-01T14:42:11.979Z,15.55
2022-08-01T14:47:22.074Z,17.90
2022-08-01T14:52:25.992Z,16.58
2022-08-01T14:57:30.580Z,16.67
2022-08-01T15:02:34.152Z,17.70
2022-08-01T15:07:41.762Z,18.75
2022-08-01T15:12:55.959Z,16.88
2022-08-01T15:18:00.835Z,16.10
2022-08-01T15:23:04.346Z,17.63
2022-08-01T15:28:07.775Z,17.15
2022-08-01T15:33:11.046Z,14.80
2022-08-01T15:38:14.481Z,16.73
2022-08-01T15:43:17.650Z,17.20
2022-08-01T15:48:21.035Z,17.35
2022-08-01T15:53:24.627Z,16.17
2022-08-01T15:58:28.255Z,16.55
2022-08-01T16:03:31.734Z,15.30
2022-08-01T16:08:36.955Z,15.45
2022-08-01T16:13:40.415Z,16.13
2022-08-01T16:18:44.285Z,18.13
2022-08-01T16:23:47.814Z,18.70
2022-08-01T16:28:51.862Z,17.85
2022-08-01T16:33:58.220Z,17.38
2022-08-01T16:39:05.681Z,18.05
2022-08-01T16:44:10.874Z,18.98
2022-08-01T16:49:17.084Z,19.40
2022-08-01T16:54:24.647Z,21.20
2022-08-01T16:59:30.057Z,21.38
2022-08-01T17:04:41.374Z,20.70
2022-08-01T17:09:44.907Z,21.65
2022-08-01T17:14:49.405Z,20.98
2022-08-01T17:19:52.998Z,22.92
2022-08-01T17:24:56.713Z,23.33
2022-08-01T17:30:00.149Z,21.50
2022-08-01T17:35:04.232Z,23.45
2022-08-01T17:40:37.489Z,23.13
2022-08-01T17:45:32.129Z,23.60
2022-08-01T17:50:45.378Z,22.25
2022-08-01T17:55:54.484Z,22.50
2022-08-01T18:06:04.531Z,22.33
2022-08-01T18:11:09.174Z,22.88
2022-08-01T18:16:13.597Z,23.13
2022-08-01T18:21:17.525Z,23.33
2022-08-01T18:26:21.984Z,22.10
2022-08-01T18:31:25.580Z,22.08
2022-08-01T18:36:32.312Z,22.20
2022-08-01T18:41:38.700Z,20.92
2022-08-01T18:46:42.363Z,21.92
2022-08-01T18:51:46.290Z,21.63
2022-08-01T18:56:56.644Z,20.33
2022-08-01T19:02:00.796Z,19.77
2022-08-01T19:07:05.605Z,18.80
2022-08-01T19:12:09.477Z,18.45
2022-08-01T19:17:13.192Z,18.35
2022-08-01T19:22:17.114Z,17.83
2022-08-01T19:27:24.087Z,16.55
2022-08-01T19:32:30.524Z,15.63
2022-08-01T19:37:34.589Z,15.25
2022-08-01T19:42:41.916Z,15.18
2022-08-01T19:47:51.851Z,15.80
2022-08-01T19:53:03.479Z,15.90
2022-08-01T19:58:26.399Z,17.52
2022-08-01T20:03:34.116Z,16.27
2022-08-01T20:08:38.035Z,14.48
2022-08-01T20:13:41.730Z,17.63
2022-08-01T20:18:45.311Z,15.00
2022-08-01T20:23:51.250Z,16.75
2022-08-01T20:28:56.819Z,13.18
2022-08-01T20:34:01.120Z,14.55
2022-08-01T20:39:04.618Z,14.10
2022-08-01T20:44:09.710Z,13.07
2022-08-01T20:49:13.789Z,14.15
2022-08-01T20:54:17.231Z,12.75
2022-08-01T20:59:39.618Z,13.98
2022-08-01T21:05:03.731Z,12.85
2022-08-01T21:10:09.528Z,12.15
2022-08-01T21:15:37.866Z,12.07
2022-08-01T21:21:11.493Z,11.45
2022-08-01T21:26:21.093Z,10.85
2022-08-01T21:31:25.703Z,12.10
2022-08-01T21:36:45.635Z,10.38
2022-08-01T21:41:56.713Z,9.68
2022-08-01T21:47:11.868Z,9.55
2022-08-01T21:52:17.715Z,9.40
2022-08-01T21:57:43.222Z,9.85
2022-08-01T22:03:08.018Z,10.45
2022-08-01T22:08:13.797Z,9.32
2022-08-01T22:13:17.420Z,9.07
2022-08-01T22:18:20.933Z,8.85
2022-08-01T22:23:24.562Z,9.35
2022-08-01T22:28:28.975Z,8.68
2022-08-01T22:33:35.746Z,9.52
2022-08-01T22:38:39.089Z,8.30
2022-08-01T22:44:08.491Z,8.63
2022-08-01T22:49:32.108Z,8.27
2022-08-01T22:54:43.082Z,8.35
2022-08-01T22:59:57.561Z,8.55
2022-08-01T23:05:06.820Z,8.43
2022-08-01T23:10:10.349Z,7.95
2022-08-01T23:15:14.072Z,8.00
2022-08-01T23:20:18.620Z,8.38
2022-08-01T23:25:23.715Z,8.05
2022-08-01T23:30:30.820Z,8.32
2022-08-01T23:35:35.492Z,8.07
2022-08-01T23:40:43.145Z,7.25
2022-08-01T23:46:03.230Z,7.93
2022-08-01T23:51:09.402Z,8.20
2022-08-01T23:56:19.163Z,6.72
